sensor_id;sensor_type;location;lat;lon;timestamp;temperature;humidity
41664;DHT22;27353;50.906;7.248;2022-10-16T00:01:24;13.70;99.90
41664;DHT22;27353;50.906;7.248;2022-10-16T00:03:51;13.70;99.90
41664;DHT22;27353;50.906;7.248;2022-10-16T00:06:19;13.60;99.90
41664;DHT22;27353;50.906;7.248;2022-10-16T00:08:51;13.60;99.90
41664;DHT22;27353;50.906;7.248;2022-10-16T00:11:31;13.50;99.90
41664;DHT22;27353;50.906;7.248;2022-10-16T00:14:00;13.50;99.90
41664;DHT22;27353;50.906;7.248;2022-10-16T00:16:27;13.50;99.90
41664;DHT22;27353;50.906;7.248;2022-10-16T00:18:53;13.50;99.90
41664;DHT22;27353;50.906;7.248;2022-10-16T00:21:22;13.60;99.90
41664;DHT22;27353;50.906;7.248;2022-10-16T00:23:52;13.60;99.90
41664;DHT22;27353;50.906;7.248;2022-10-16T00:26:18;13.60;99.90
41664;DHT22;27353;50.906;7.248;2022-10-16T00:28:49;13.60;99.90
41664;DHT22;27353;50.906;7.248;2022-10-16T00:31:16;13.60;99.90
41664;DHT22;27353;50.906;7.248;2022-10-16T00:33:42;13.60;99.90
41664;DHT22;27353;50.906;7.248;2022-10-16T00:36:11;13.60;99.90
41664;DHT22;27353;50.906;7.248;2022-10-16T00:38:37;13.60;99.90
41664;DHT22;27353;50.906;7.248;2022-10-16T00:41:07;13.60;99.90
41664;DHT22;27353;50.906;7.248;2022-10-16T00:46:03;13.50;99.90
41664;DHT22;27353;50.906;7.248;2022-10-16T00:48:30;13.50;99.90
41664;DHT22;27353;50.906;7.248;2022-10-16T00:50:56;13.50;99.90
41664;DHT22;27353;50.906;7.248;2022-10-16T00:53:23;13.50;99.90
41664;DHT22;27353;50.906;7.248;2022-10-16T00:55:50;13.50;99.90
41664;DHT22;27353;50.906;7.248;2022-10-16T00:58:15;13.50;99.90
41664;DHT22;27353;50.906;7.248;2022-10-16T01:00:41;13.50;99.90
41664;DHT22;27353;50.906;7.248;2022-10-16T01:03:24;13.40;99.90
41664;DHT22;27353;50.906;7.248;2022-10-16T01:06:02;13.40;99.90
41664;DHT22;27353;50.906;7.248;2022-10-16T01:08:58;13.40;99.90
41664;DHT22;27353;50.906;7.248;2022-10-16T01:11:41;13.40;99.90
41664;DHT22;27353;50.906;7.248;2022-10-16T01:14:16;13.40;99.90
41664;DHT22;27353;50.906;7.248;2022-10-16T01:17:04;13.40;99.90
41664;DHT22;27353;50.906;7.248;2022-10-16T01:21:59;13.30;99.90
41664;DHT22;27353;50.906;7.248;2022-10-16T01:24:45;13.40;99.90
41664;DHT22;27353;50.906;7.248;2022-10-16T01:27:23;13.30;99.90
41664;DHT22;27353;50.906;7.248;2022-10-16T01:30:07;13.30;99.90
41664;DHT22;27353;50.906;7.248;2022-10-16T01:32:41;13.20;99.90
41664;DHT22;27353;50.906;7.248;2022-10-16T01:37:40;13.10;99.90
41664;DHT22;27353;50.906;7.248;2022-10-16T01:40:12;13.10;99.90
41664;DHT22;27353;50.906;7.248;2022-10-16T01:42:44;13.10;99.90
41664;DHT22;27353;50.906;7.248;2022-10-16T01:45:12;13.10;99.90
41664;DHT22;27353;50.906;7.248;2022-10-16T01:47:39;13.10;99.90
41664;DHT22;27353;50.906;7.248;2022-10-16T01:50:07;13.00;99.90
41664;DHT22;27353;50.906;7.248;2022-10-16T01:52:37;12.90;99.90
41664;DHT22;27353;50.906;7.248;2022-10-16T01:55:06;12.90;99.90
41664;DHT22;27353;50.906;7.248;2022-10-16T01:57:36;12.90;99.90
41664;DHT22;27353;50.906;7.248;2022-10-16T02:00:07;12.90;99.90
41664;DHT22;27353;50.906;7.248;2022-10-16T02:02:34;12.80;99.90
41664;DHT22;27353;50.906;7.248;2022-10-16T02:05:05;12.80;99.90
41664;DHT22;27353;50.906;7.248;2022-10-16T02:07:34;12.80;99.90
41664;DHT22;27353;50.906;7.248;2022-10-16T02:10:01;12.70;99.90
41664;DHT22;27353;50.906;7.248;2022-10-16T02:12:29;12.70;99.90
41664;DHT22;27353;50.906;7.248;2022-10-16T02:14:56;12.70;99.90
41664;DHT22;27353;50.906;7.248;2022-10-16T02:17:24;12.70;99.90
41664;DHT22;27353;50.906;7.248;2022-10-16T02:19:51;12.60;99.90
41664;DHT22;27353;50.906;7.248;2022-10-16T02:22:32;12.60;99.90
41664;DHT22;27353;50.906;7.248;2022-10-16T02:25:25;12.70;99.90
41664;DHT22;27353;50.906;7.248;2022-10-16T02:30:32;12.70;99.90
41664;DHT22;27353;50.906;7.248;2022-10-16T02:33:01;12.70;99.90
41664;DHT22;27353;50.906;7.248;2022-10-16T02:35:28;12.70;99.90
41664;DHT22;27353;50.906;7.248;2022-10-16T02:37:56;12.80;99.90
41664;DHT22;27353;50.906;7.248;2022-10-16T02:40:22;12.80;99.90
41664;DHT22;27353;50.906;7.248;2022-10-16T02:42:51;12.80;99.90
41664;DHT22;27353;50.906;7.248;2022-10-16T02:45:17;12.80;99.90
41664;DHT22;27353;50.906;7.248;2022-10-16T02:47:43;12.90;99.90
41664;DHT22;27353;50.906;7.248;2022-10-16T02:50:09;12.90;99.90
41664;DHT22;27353;50.906;7.248;2022-10-16T02:52:34;13.00;99.90
41664;DHT22;27353;50.906;7.248;2022-10-16T02:55:00;13.00;99.90
41664;DHT22;27353;50.906;7.248;2022-10-16T02:57:26;13.00;99.90
41664;DHT22;27353;50.906;7.248;2022-10-16T02:59:51;13.00;99.90
41664;DHT22;27353;50.906;7.248;2022-10-16T03:02:17;13.10;99.90
41664;DHT22;27353;50.906;7.248;2022-10-16T03:04:43;13.10;99.90
41664;DHT22;27353;50.906;7.248;2022-10-16T03:07:08;13.10;99.90
41664;DHT22;27353;50.906;7.248;2022-10-16T03:09:34;13.10;99.90
41664;DHT22;27353;50.906;7.248;2022-10-16T03:11:59;13.10;99.90
41664;DHT22;27353;50.906;7.248;2022-10-16T03:14:25;13.10;99.90
41664;DHT22;27353;50.906;7.248;2022-10-16T03:16:51;13.10;99.90
41664;DHT22;27353;50.906;7.248;2022-10-16T03:19:17;13.10;99.90
41664;DHT22;27353;50.906;7.248;2022-10-16T03:21:43;13.10;99.90
41664;DHT22;27353;50.906;7.248;2022-10-16T03:24:09;13.10;99.90
41664;DHT22;27353;50.906;7.248;2022-10-16T03:26:34;13.10;99.90
41664;DHT22;27353;50.906;7.248;2022-10-16T03:29:00;13.00;99.90
41664;DHT22;27353;50.906;7.248;2022-10-16T03:31:27;13.10;99.90
41664;DHT22;27353;50.906;7.248;2022-10-16T03:33:53;13.00;99.90
41664;DHT22;27353;50.906;7.248;2022-10-16T03:36:18;13.00;99.90
41664;DHT22;27353;50.906;7.248;2022-10-16T03:38:44;13.10;99.90
41664;DHT22;27353;50.906;7.248;2022-10-16T03:41:10;13.00;99.90
41664;DHT22;27353;50.906;7.248;2022-10-16T03:43:35;13.00;99.90
41664;DHT22;27353;50.906;7.248;2022-10-16T03:46:01;13.00;99.90
41664;DHT22;27353;50.906;7.248;2022-10-16T03:48:26;13.00;99.90
41664;DHT22;27353;50.906;7.248;2022-10-16T03:50:52;13.00;99.90
41664;DHT22;27353;50.906;7.248;2022-10-16T03:53:18;13.00;99.90
41664;DHT22;27353;50.906;7.248;2022-10-16T03:55:44;13.00;99.90
41664;DHT22;27353;50.906;7.248;2022-10-16T03:58:10;13.00;99.90
41664;DHT22;27353;50.906;7.248;2022-10-16T04:00:43;13.00;99.90
41664;DHT22;27353;50.906;7.248;2022-10-16T04:03:09;13.00;99.90
41664;DHT22;27353;50.906;7.248;2022-10-16T04:05:35;13.00;99.90
41664;DHT22;27353;50.906;7.248;2022-10-16T04:08:01;12.90;99.90
41664;DHT22;27353;50.906;7.248;2022-10-16T04:10:26;12.90;99.90
41664;DHT22;27353;50.906;7.248;2022-10-16T04:12:52;12.90;99.90
41664;DHT22;27353;50.906;7.248;2022-10-16T04:15:20;13.00;99.90
41664;DHT22;27353;50.906;7.248;2022-10-16T04:17:45;13.00;99.90
41664;DHT22;27353;50.906;7.248;2022-10-16T04:20:11;13.00;99.90
41664;DHT22;27353;50.906;7.248;2022-10-16T04:22:36;13.10;99.90
41664;DHT22;27353;50.906;7.248;2022-10-16T04:25:02;13.10;99.90
41664;DHT22;27353;50.906;7.248;2022-10-16T04:27:28;13.20;99.90
41664;DHT22;27353;50.906;7.248;2022-10-16T04:29:53;13.20;99.90
41664;DHT22;27353;50.906;7.248;2022-10-16T04:32:19;13.30;99.90
41664;DHT22;27353;50.906;7.248;2022-10-16T04:34:44;13.30;99.90
41664;DHT22;27353;50.906;7.248;2022-10-16T04:37:10;13.30;99.90
41664;DHT22;27353;50.906;7.248;2022-10-16T04:39:36;13.20;99.90
41664;DHT22;27353;50.906;7.248;2022-10-16T04:42:01;13.20;99.90
41664;DHT22;27353;50.906;7.248;2022-10-16T04:44:28;13.20;99.90
41664;DHT22;27353;50.906;7.248;2022-10-16T04:46:53;13.20;99.90
41664;DHT22;27353;50.906;7.248;2022-10-16T04:49:19;13.20;99.90
41664;DHT22;27353;50.906;7.248;2022-10-16T04:51:44;13.20;99.90
41664;DHT22;27353;50.906;7.248;2022-10-16T04:54:10;13.20;99.90
41664;DHT22;27353;50.906;7.248;2022-10-16T04:56:36;13.30;99.90
41664;DHT22;27353;50.906;7.248;2022-10-16T04:59:09;13.30;99.90
41664;DHT22;27353;50.906;7.248;2022-10-16T05:01:34;13.30;99.90
41664;DHT22;27353;50.906;7.248;2022-10-16T05:04:00;13.30;99.90
41664;DHT22;27353;50.906;7.248;2022-10-16T05:06:26;13.30;99.90
41664;DHT22;27353;50.906;7.248;2022-10-16T05:08:52;13.30;99.90
41664;DHT22;27353;50.906;7.248;2022-10-16T05:11:17;13.30;99.90
41664;DHT22;27353;50.906;7.248;2022-10-16T05:13:43;13.20;99.90
41664;DHT22;27353;50.906;7.248;2022-10-16T05:16:08;13.20;99.90
41664;DHT22;27353;50.906;7.248;2022-10-16T05:18:34;13.10;99.90
41664;DHT22;27353;50.906;7.248;2022-10-16T05:21:00;13.10;99.90
41664;DHT22;27353;50.906;7.248;2022-10-16T05:23:25;13.10;99.90
41664;DHT22;27353;50.906;7.248;2022-10-16T05:25:57;13.10;99.90
41664;DHT22;27353;50.906;7.248;2022-10-16T05:28:28;13.20;99.90
41664;DHT22;27353;50.906;7.248;2022-10-16T05:30:55;13.20;99.90
41664;DHT22;27353;50.906;7.248;2022-10-16T05:33:21;13.30;99.90
41664;DHT22;27353;50.906;7.248;2022-10-16T05:35:47;13.30;99.90
41664;DHT22;27353;50.906;7.248;2022-10-16T05:38:13;13.30;99.90
41664;DHT22;27353;50.906;7.248;2022-10-16T05:40:38;13.30;99.90
41664;DHT22;27353;50.906;7.248;2022-10-16T05:43:04;13.30;99.90
41664;DHT22;27353;50.906;7.248;2022-10-16T05:45:30;13.20;99.90
41664;DHT22;27353;50.906;7.248;2022-10-16T05:47:56;13.20;99.90
41664;DHT22;27353;50.906;7.248;2022-10-16T05:50:21;13.20;99.90
41664;DHT22;27353;50.906;7.248;2022-10-16T05:52:47;13.20;99.90
41664;DHT22;27353;50.906;7.248;2022-10-16T05:55:12;13.20;99.90
41664;DHT22;27353;50.906;7.248;2022-10-16T05:57:38;13.20;99.90
41664;DHT22;27353;50.906;7.248;2022-10-16T06:00:05;13.10;99.90
41664;DHT22;27353;50.906;7.248;2022-10-16T06:02:30;13.10;99.90
41664;DHT22;27353;50.906;7.248;2022-10-16T06:04:56;13.10;99.90
41664;DHT22;27353;50.906;7.248;2022-10-16T06:07:22;13.10;99.90
41664;DHT22;27353;50.906;7.248;2022-10-16T06:09:52;13.10;99.90
41664;DHT22;27353;50.906;7.248;2022-10-16T06:12:18;13.10;99.90
41664;DHT22;27353;50.906;7.248;2022-10-16T06:14:45;13.10;99.90
41664;DHT22;27353;50.906;7.248;2022-10-16T06:17:12;13.10;99.90
41664;DHT22;27353;50.906;7.248;2022-10-16T06:19:38;13.10;99.90
41664;DHT22;27353;50.906;7.248;2022-10-16T06:22:04;13.00;99.90
41664;DHT22;27353;50.906;7.248;2022-10-16T06:24:30;13.00;99.90
41664;DHT22;27353;50.906;7.248;2022-10-16T06:26:55;13.10;99.90
41664;DHT22;27353;50.906;7.248;2022-10-16T06:29:21;13.10;99.90
41664;DHT22;27353;50.906;7.248;2022-10-16T06:31:46;13.10;99.90
41664;DHT22;27353;50.906;7.248;2022-10-16T06:34:12;13.10;99.90
41664;DHT22;27353;50.906;7.248;2022-10-16T06:36:38;13.00;99.90
41664;DHT22;27353;50.906;7.248;2022-10-16T06:39:05;13.00;99.90
41664;DHT22;27353;50.906;7.248;2022-10-16T06:41:32;13.00;99.90
41664;DHT22;27353;50.906;7.248;2022-10-16T06:43:58;13.00;99.90
41664;DHT22;27353;50.906;7.248;2022-10-16T06:46:25;13.00;99.90
41664;DHT22;27353;50.906;7.248;2022-10-16T06:48:51;13.10;99.90
41664;DHT22;27353;50.906;7.248;2022-10-16T06:51:19;13.20;99.90
41664;DHT22;27353;50.906;7.248;2022-10-16T06:53:51;13.20;99.90
41664;DHT22;27353;50.906;7.248;2022-10-16T06:56:17;13.40;99.90
41664;DHT22;27353;50.906;7.248;2022-10-16T06:58:44;13.50;99.90
41664;DHT22;27353;50.906;7.248;2022-10-16T07:01:11;13.70;99.90
41664;DHT22;27353;50.906;7.248;2022-10-16T07:03:39;13.90;99.90
41664;DHT22;27353;50.906;7.248;2022-10-16T07:06:06;14.10;99.90
41664;DHT22;27353;50.906;7.248;2022-10-16T07:08:33;14.30;99.90
41664;DHT22;27353;50.906;7.248;2022-10-16T07:11:04;14.40;99.90
41664;DHT22;27353;50.906;7.248;2022-10-16T07:13:30;14.50;99.90
41664;DHT22;27353;50.906;7.248;2022-10-16T07:15:55;14.60;99.90
41664;DHT22;27353;50.906;7.248;2022-10-16T07:18:21;14.70;99.90
41664;DHT22;27353;50.906;7.248;2022-10-16T07:20:51;14.70;99.90
41664;DHT22;27353;50.906;7.248;2022-10-16T07:23:16;14.70;99.90
41664;DHT22;27353;50.906;7.248;2022-10-16T07:25:42;14.80;99.90
41664;DHT22;27353;50.906;7.248;2022-10-16T07:28:08;14.80;99.90
41664;DHT22;27353;50.906;7.248;2022-10-16T07:30:35;15.00;99.90
41664;DHT22;27353;50.906;7.248;2022-10-16T07:33:02;15.10;99.90
41664;DHT22;27353;50.906;7.248;2022-10-16T07:35:28;15.10;99.90
41664;DHT22;27353;50.906;7.248;2022-10-16T07:37:53;15.00;99.90
41664;DHT22;27353;50.906;7.248;2022-10-16T07:40:19;15.00;99.90
41664;DHT22;27353;50.906;7.248;2022-10-16T07:42:44;15.10;99.90
41664;DHT22;27353;50.906;7.248;2022-10-16T07:45:10;15.20;99.90
41664;DHT22;27353;50.906;7.248;2022-10-16T07:47:35;15.20;99.90
41664;DHT22;27353;50.906;7.248;2022-10-16T07:50:01;15.20;99.90
41664;DHT22;27353;50.906;7.248;2022-10-16T07:52:27;15.40;99.90
41664;DHT22;27353;50.906;7.248;2022-10-16T07:54:52;15.50;99.90
41664;DHT22;27353;50.906;7.248;2022-10-16T07:57:18;15.60;99.90
41664;DHT22;27353;50.906;7.248;2022-10-16T07:59:45;15.70;99.90
41664;DHT22;27353;50.906;7.248;2022-10-16T08:02:11;15.80;99.90
41664;DHT22;27353;50.906;7.248;2022-10-16T08:04:37;16.20;99.90
41664;DHT22;27353;50.906;7.248;2022-10-16T08:07:03;16.30;99.90
41664;DHT22;27353;50.906;7.248;2022-10-16T08:09:28;16.20;99.90
41664;DHT22;27353;50.906;7.248;2022-10-16T08:11:54;16.20;99.90
41664;DHT22;27353;50.906;7.248;2022-10-16T08:14:19;16.10;99.90
41664;DHT22;27353;50.906;7.248;2022-10-16T08:16:45;16.10;99.90
41664;DHT22;27353;50.906;7.248;2022-10-16T08:19:11;16.00;99.90
41664;DHT22;27353;50.906;7.248;2022-10-16T08:21:36;16.00;99.90
41664;DHT22;27353;50.906;7.248;2022-10-16T08:24:02;16.70;99.90
41664;DHT22;27353;50.906;7.248;2022-10-16T08:26:27;18.60;99.90
41664;DHT22;27353;50.906;7.248;2022-10-16T08:28:54;20.50;99.90
41664;DHT22;27353;50.906;7.248;2022-10-16T08:31:19;21.90;99.90
41664;DHT22;27353;50.906;7.248;2022-10-16T08:33:45;23.60;99.90
41664;DHT22;27353;50.906;7.248;2022-10-16T08:36:12;24.50;99.90
41664;DHT22;27353;50.906;7.248;2022-10-16T08:38:38;25.40;99.90
41664;DHT22;27353;50.906;7.248;2022-10-16T08:41:36;27.20;99.90
41664;DHT22;27353;50.906;7.248;2022-10-16T08:47:23;28.00;92.80
41664;DHT22;27353;50.906;7.248;2022-10-16T08:49:59;29.10;87.60
41664;DHT22;27353;50.906;7.248;2022-10-16T08:52:32;29.50;87.80
41664;DHT22;27353;50.906;7.248;2022-10-16T08:54:59;30.00;84.90
41664;DHT22;27353;50.906;7.248;2022-10-16T08:57:26;31.00;77.90
41664;DHT22;27353;50.906;7.248;2022-10-16T08:59:53;31.80;74.60
41664;DHT22;27353;50.906;7.248;2022-10-16T09:14:13;30.20;69.90
41664;DHT22;27353;50.906;7.248;2022-10-16T09:16:48;28.30;77.10
41664;DHT22;27353;50.906;7.248;2022-10-16T09:19:34;28.60;79.20
41664;DHT22;27353;50.906;7.248;2022-10-16T09:22:12;28.70;77.70
41664;DHT22;27353;50.906;7.248;2022-10-16T09:24:39;28.80;76.40
41664;DHT22;27353;50.906;7.248;2022-10-16T09:27:06;29.00;78.10
41664;DHT22;27353;50.906;7.248;2022-10-16T09:29:32;30.30;75.00
41664;DHT22;27353;50.906;7.248;2022-10-16T09:32:13;30.90;70.50
41664;DHT22;27353;50.906;7.248;2022-10-16T09:34:45;29.60;72.30
41664;DHT22;27353;50.906;7.248;2022-10-16T09:37:15;29.20;74.70
41664;DHT22;27353;50.906;7.248;2022-10-16T09:40:12;28.60;74.60
41664;DHT22;27353;50.906;7.248;2022-10-16T09:42:38;29.80;71.80
41664;DHT22;27353;50.906;7.248;2022-10-16T09:45:04;30.50;68.30
41664;DHT22;27353;50.906;7.248;2022-10-16T09:47:31;29.30;70.50
41664;DHT22;27353;50.906;7.248;2022-10-16T09:50:14;28.10;75.00
41664;DHT22;27353;50.906;7.248;2022-10-16T09:52:45;27.40;77.70
41664;DHT22;27353;50.906;7.248;2022-10-16T09:55:15;26.70;79.30
41664;DHT22;27353;50.906;7.248;2022-10-16T09:57:51;27.30;80.40
41664;DHT22;27353;50.906;7.248;2022-10-16T10:00:18;28.30;75.90
41664;DHT22;27353;50.906;7.248;2022-10-16T10:02:44;29.70;72.80
41664;DHT22;27353;50.906;7.248;2022-10-16T10:05:26;31.10;68.70
41664;DHT22;27353;50.906;7.248;2022-10-16T10:08:00;31.10;65.00
41664;DHT22;27353;50.906;7.248;2022-10-16T10:10:30;31.00;65.50
41664;DHT22;27353;50.906;7.248;2022-10-16T10:12:57;31.00;64.20
41664;DHT22;27353;50.906;7.248;2022-10-16T10:15:24;31.80;63.90
41664;DHT22;27353;50.906;7.248;2022-10-16T10:17:57;32.20;61.70
41664;DHT22;27353;50.906;7.248;2022-10-16T10:20:31;32.90;61.80
41664;DHT22;27353;50.906;7.248;2022-10-16T10:26:24;32.20;61.00
41664;DHT22;27353;50.906;7.248;2022-10-16T10:31:36;33.80;56.90
41664;DHT22;27353;50.906;7.248;2022-10-16T10:36:35;33.70;59.70
41664;DHT22;27353;50.906;7.248;2022-10-16T10:42:16;32.70;56.30
41664;DHT22;27353;50.906;7.248;2022-10-16T11:01:15;33.40;58.40
41664;DHT22;27353;50.906;7.248;2022-10-16T11:06:40;33.60;55.20
41664;DHT22;27353;50.906;7.248;2022-10-16T11:09:24;33.10;56.00
41664;DHT22;27353;50.906;7.248;2022-10-16T11:12:15;34.70;55.20
41664;DHT22;27353;50.906;7.248;2022-10-16T11:15:35;34.60;55.00
41664;DHT22;27353;50.906;7.248;2022-10-16T11:17:59;35.40;52.70
41664;DHT22;27353;50.906;7.248;2022-10-16T11:20:34;36.00;52.10
41664;DHT22;27353;50.906;7.248;2022-10-16T11:25:35;34.10;54.00
41664;DHT22;27353;50.906;7.248;2022-10-16T11:28:11;33.10;54.50
41664;DHT22;27353;50.906;7.248;2022-10-16T11:30:43;32.80;56.30
41664;DHT22;27353;50.906;7.248;2022-10-16T11:39:38;29.10;62.60
41664;DHT22;27353;50.906;7.248;2022-10-16T11:41:44;28.00;63.40
41664;DHT22;27353;50.906;7.248;2022-10-16T11:44:51;26.70;68.00
41664;DHT22;27353;50.906;7.248;2022-10-16T11:47:36;26.60;67.50
41664;DHT22;27353;50.906;7.248;2022-10-16T11:52:57;26.60;68.80
41664;DHT22;27353;50.906;7.248;2022-10-16T11:55:39;25.70;69.00
41664;DHT22;27353;50.906;7.248;2022-10-16T12:03:38;24.00;82.50
41664;DHT22;27353;50.906;7.248;2022-10-16T12:08:59;23.10;90.70
41664;DHT22;27353;50.906;7.248;2022-10-16T12:14:19;22.50;97.30
41664;DHT22;27353;50.906;7.248;2022-10-16T12:19:21;22.00;96.40
41664;DHT22;27353;50.906;7.248;2022-10-16T12:21:56;21.90;99.80
41664;DHT22;27353;50.906;7.248;2022-10-16T12:27:01;21.60;99.90
41664;DHT22;27353;50.906;7.248;2022-10-16T12:29:36;21.60;99.90
41664;DHT22;27353;50.906;7.248;2022-10-16T12:32:05;21.50;99.90
41664;DHT22;27353;50.906;7.248;2022-10-16T12:34:44;21.90;99.90
41664;DHT22;27353;50.906;7.248;2022-10-16T12:37:20;23.60;99.10
41664;DHT22;27353;50.906;7.248;2022-10-16T12:39:47;24.90;90.80
41664;DHT22;27353;50.906;7.248;2022-10-16T12:44:52;28.00;81.50
41664;DHT22;27353;50.906;7.248;2022-10-16T12:49:57;28.50;73.70
41664;DHT22;27353;50.906;7.248;2022-10-16T12:52:38;28.40;72.90
41664;DHT22;27353;50.906;7.248;2022-10-16T12:55:05;27.60;75.20
41664;DHT22;27353;50.906;7.248;2022-10-16T13:00:45;23.30;90.90
41664;DHT22;27353;50.906;7.248;2022-10-16T13:08:57;22.70;99.30
41664;DHT22;27353;50.906;7.248;2022-10-16T13:17:15;25.70;84.40
41664;DHT22;27353;50.906;7.248;2022-10-16T13:22:36;23.40;96.40
41664;DHT22;27353;50.906;7.248;2022-10-16T13:26:17;22.60;96.70
41664;DHT22;27353;50.906;7.248;2022-10-16T13:28:14;22.00;99.90
41664;DHT22;27353;50.906;7.248;2022-10-16T13:30:55;21.60;99.90
41664;DHT22;27353;50.906;7.248;2022-10-16T13:33:40;21.40;99.90
41664;DHT22;27353;50.906;7.248;2022-10-16T13:36:19;21.50;99.90
41664;DHT22;27353;50.906;7.248;2022-10-16T13:38:44;21.10;99.90
41664;DHT22;27353;50.906;7.248;2022-10-16T13:41:17;21.00;99.90
41664;DHT22;27353;50.906;7.248;2022-10-16T13:43:46;20.90;99.90
41664;DHT22;27353;50.906;7.248;2022-10-16T13:46:25;20.80;99.90
41664;DHT22;27353;50.906;7.248;2022-10-16T13:49:03;20.70;99.90
41664;DHT22;27353;50.906;7.248;2022-10-16T13:51:30;20.50;99.90
41664;DHT22;27353;50.906;7.248;2022-10-16T13:53:56;20.30;99.90
41664;DHT22;27353;50.906;7.248;2022-10-16T13:56:26;20.50;99.90
41664;DHT22;27353;50.906;7.248;2022-10-16T13:59:04;20.50;99.90
41664;DHT22;27353;50.906;7.248;2022-10-16T14:01:32;20.60;99.90
41664;DHT22;27353;50.906;7.248;2022-10-16T14:04:07;20.70;99.90
41664;DHT22;27353;50.906;7.248;2022-10-16T14:06:35;21.00;99.90
41664;DHT22;27353;50.906;7.248;2022-10-16T14:09:22;20.80;99.90
41664;DHT22;27353;50.906;7.248;2022-10-16T14:14:27;20.60;99.90
41664;DHT22;27353;50.906;7.248;2022-10-16T14:16:56;20.40;99.90
41664;DHT22;27353;50.906;7.248;2022-10-16T14:19:29;20.20;99.90
41664;DHT22;27353;50.906;7.248;2022-10-16T14:21:56;20.20;99.90
41664;DHT22;27353;50.906;7.248;2022-10-16T14:26:51;20.20;99.90
41664;DHT22;27353;50.906;7.248;2022-10-16T14:29:20;20.30;99.90
41664;DHT22;27353;50.906;7.248;2022-10-16T14:32:03;20.30;99.90
41664;DHT22;27353;50.906;7.248;2022-10-16T14:34:39;20.30;99.90
41664;DHT22;27353;50.906;7.248;2022-10-16T14:37:10;20.10;99.90
41664;DHT22;27353;50.906;7.248;2022-10-16T14:39:40;20.00;99.90
41664;DHT22;27353;50.906;7.248;2022-10-16T14:42:14;19.90;99.90
41664;DHT22;27353;50.906;7.248;2022-10-16T14:44:40;19.80;99.90
41664;DHT22;27353;50.906;7.248;2022-10-16T14:47:13;19.90;99.90
41664;DHT22;27353;50.906;7.248;2022-10-16T14:49:41;19.80;99.90
41664;DHT22;27353;50.906;7.248;2022-10-16T14:52:13;19.90;99.90
41664;DHT22;27353;50.906;7.248;2022-10-16T14:54:40;19.90;99.90
41664;DHT22;27353;50.906;7.248;2022-10-16T14:57:16;20.00;99.90
41664;DHT22;27353;50.906;7.248;2022-10-16T14:59:42;19.80;99.90
41664;DHT22;27353;50.906;7.248;2022-10-16T15:04:46;19.90;99.90
41664;DHT22;27353;50.906;7.248;2022-10-16T15:07:12;19.70;99.90
41664;DHT22;27353;50.906;7.248;2022-10-16T15:09:38;19.50;99.90
41664;DHT22;27353;50.906;7.248;2022-10-16T15:12:04;19.50;99.90
41664;DHT22;27353;50.906;7.248;2022-10-16T15:14:29;19.50;99.90
41664;DHT22;27353;50.906;7.248;2022-10-16T15:16:55;19.50;99.90
41664;DHT22;27353;50.906;7.248;2022-10-16T15:19:20;19.50;99.90
41664;DHT22;27353;50.906;7.248;2022-10-16T15:21:47;19.40;99.90
41664;DHT22;27353;50.906;7.248;2022-10-16T15:24:13;19.40;99.90
41664;DHT22;27353;50.906;7.248;2022-10-16T15:26:39;19.40;99.90
41664;DHT22;27353;50.906;7.248;2022-10-16T15:29:05;19.40;99.90
41664;DHT22;27353;50.906;7.248;2022-10-16T15:31:31;19.30;99.90
41664;DHT22;27353;50.906;7.248;2022-10-16T15:33:57;19.20;99.90
41664;DHT22;27353;50.906;7.248;2022-10-16T15:36:33;19.20;99.90
41664;DHT22;27353;50.906;7.248;2022-10-16T15:39:06;19.10;99.90
41664;DHT22;27353;50.906;7.248;2022-10-16T15:41:37;19.00;99.90
41664;DHT22;27353;50.906;7.248;2022-10-16T15:44:03;18.90;99.90
41664;DHT22;27353;50.906;7.248;2022-10-16T15:46:28;18.80;99.90
41664;DHT22;27353;50.906;7.248;2022-10-16T15:48:57;18.70;99.90
41664;DHT22;27353;50.906;7.248;2022-10-16T15:51:23;18.70;99.90
41664;DHT22;27353;50.906;7.248;2022-10-16T15:53:49;18.70;99.90
41664;DHT22;27353;50.906;7.248;2022-10-16T15:56:16;18.70;99.90
41664;DHT22;27353;50.906;7.248;2022-10-16T15:58:43;18.60;99.90
41664;DHT22;27353;50.906;7.248;2022-10-16T16:01:09;18.50;99.90
41664;DHT22;27353;50.906;7.248;2022-10-16T16:03:36;18.50;99.90
41664;DHT22;27353;50.906;7.248;2022-10-16T16:06:07;18.40;99.90
41664;DHT22;27353;50.906;7.248;2022-10-16T16:08:33;18.40;99.90
41664;DHT22;27353;50.906;7.248;2022-10-16T16:11:04;18.40;99.90
41664;DHT22;27353;50.906;7.248;2022-10-16T16:13:30;18.30;99.90
41664;DHT22;27353;50.906;7.248;2022-10-16T16:15:56;18.20;99.90
41664;DHT22;27353;50.906;7.248;2022-10-16T16:18:22;18.20;99.90
41664;DHT22;27353;50.906;7.248;2022-10-16T16:20:49;18.10;99.90
41664;DHT22;27353;50.906;7.248;2022-10-16T16:23:15;18.00;99.90
41664;DHT22;27353;50.906;7.248;2022-10-16T16:25:41;18.00;99.90
41664;DHT22;27353;50.906;7.248;2022-10-16T16:28:07;17.90;99.90
41664;DHT22;27353;50.906;7.248;2022-10-16T16:30:35;17.90;99.90
41664;DHT22;27353;50.906;7.248;2022-10-16T16:33:01;17.90;99.90
41664;DHT22;27353;50.906;7.248;2022-10-16T16:35:26;17.90;99.90
41664;DHT22;27353;50.906;7.248;2022-10-16T16:37:52;17.90;99.90
41664;DHT22;27353;50.906;7.248;2022-10-16T16:40:18;17.90;99.90
41664;DHT22;27353;50.906;7.248;2022-10-16T16:42:43;17.90;99.90
41664;DHT22;27353;50.906;7.248;2022-10-16T16:45:09;17.80;99.90
41664;DHT22;27353;50.906;7.248;2022-10-16T16:47:35;17.80;99.90
41664;DHT22;27353;50.906;7.248;2022-10-16T16:52:29;17.70;99.90
41664;DHT22;27353;50.906;7.248;2022-10-16T16:54:54;17.70;99.90
41664;DHT22;27353;50.906;7.248;2022-10-16T16:57:20;17.70;99.90
41664;DHT22;27353;50.906;7.248;2022-10-16T16:59:46;17.70;99.90
41664;DHT22;27353;50.906;7.248;2022-10-16T17:02:11;17.60;99.90
41664;DHT22;27353;50.906;7.248;2022-10-16T17:04:37;17.60;99.90
41664;DHT22;27353;50.906;7.248;2022-10-16T17:07:03;17.60;99.90
41664;DHT22;27353;50.906;7.248;2022-10-16T17:09:28;17.60;99.90
41664;DHT22;27353;50.906;7.248;2022-10-16T17:11:54;17.60;99.90
41664;DHT22;27353;50.906;7.248;2022-10-16T17:14:20;17.60;99.90
41664;DHT22;27353;50.906;7.248;2022-10-16T17:16:45;17.50;99.90
41664;DHT22;27353;50.906;7.248;2022-10-16T17:19:16;17.50;99.90
41664;DHT22;27353;50.906;7.248;2022-10-16T17:21:42;17.50;99.90
41664;DHT22;27353;50.906;7.248;2022-10-16T17:24:08;17.50;99.90
41664;DHT22;27353;50.906;7.248;2022-10-16T17:26:35;17.40;99.90
41664;DHT22;27353;50.906;7.248;2022-10-16T17:29:03;17.50;99.90
41664;DHT22;27353;50.906;7.248;2022-10-16T17:31:34;17.40;99.90
41664;DHT22;27353;50.906;7.248;2022-10-16T17:34:02;17.40;99.90
41664;DHT22;27353;50.906;7.248;2022-10-16T17:36:30;17.40;99.90
41664;DHT22;27353;50.906;7.248;2022-10-16T17:39:05;17.40;99.90